Time;durP1;ratioP1;P1;durP2;ratioP2;P2;SDS_P1;SDS_P2;PMS_P1;PMS_P2;Temp;Humidity;BMP_temperature;BMP_pressure;BME280_temperature;BME280_humidity;BME280_pressure;Samples;Min_cycle;Max_cycle;Signal;HPM_P1;HPM_P2
2022/02/18 00:00:31;;;;;;;;;8.25;5.25;;;;;20.26;38.90;100991.78;5076005;27;51009;-44
2022/02/18 00:02:57;;;;;;;;;5.25;5.00;;;;;20.27;38.63;100998.13;5078391;27;51169;-45
2022/02/18 00:05:22;;;;;;;;;5.25;5.25;;;;;20.26;38.65;100996.44;5078599;28;50966;-45
2022/02/18 00:07:48;;;;;;;;;6.50;6.00;;;;;20.25;39.02;100983.75;5077614;27;51120;-44
2022/02/18 00:10:14;;;;;;;;;5.00;5.00;;;;;20.25;38.85;100972.75;5076753;27;51072;-45
2022/02/18 00:12:40;;;;;;;;;7.75;6.00;;;;;20.25;38.49;100967.25;5077945;27;51141;-43
2022/02/18 00:15:06;;;;;;;;;6.00;5.00;;;;;20.24;38.77;100960.91;5077894;28;51125;-44
2022/02/18 00:17:31;;;;;;;;;6.50;5.50;;;;;20.25;38.57;100951.59;5077684;27;51281;-47
2022/02/18 00:19:57;;;;;;;;;8.75;7.25;;;;;20.24;38.70;100949.91;5076839;28;51131;-44
2022/02/18 00:22:24;;;;;;;;;6.25;5.50;;;;;20.24;38.49;100955.41;5077716;27;51103;-44
2022/02/18 00:24:49;;;;;;;;;8.25;4.00;;;;;20.24;38.64;100958.16;5077740;27;51333;-44
2022/02/18 00:27:15;;;;;;;;;6.25;5.50;;;;;20.23;38.68;100952.88;5077690;27;51219;-45
2022/02/18 00:29:41;;;;;;;;;10.50;7.00;;;;;20.24;38.34;100949.06;5077080;27;51104;-48
2022/02/18 00:32:08;;;;;;;;;6.00;5.00;;;;;20.23;38.67;100939.13;5077186;27;51178;-43
2022/02/18 00:34:37;;;;;;;;;6.25;5.00;;;;;20.23;38.56;100937.22;5077563;27;51307;-44
2022/02/18 00:37:04;;;;;;;;;4.75;4.75;;;;;20.23;38.73;100936.38;5077270;27;51986;-44
2022/02/18 00:39:29;;;;;;;;;6.75;5.50;;;;;20.22;38.63;100938.28;5077354;28;51108;-44
2022/02/18 00:41:55;;;;;;;;;5.50;4.25;;;;;20.23;38.56;100939.13;5077798;27;51115;-43
2022/02/18 00:44:21;;;;;;;;;4.75;3.50;;;;;20.22;38.91;100931.91;5077364;28;51210;-44
2022/02/18 00:46:46;;;;;;;;;6.25;5.00;;;;;20.21;38.67;100914.56;5077708;27;52210;-46
2022/02/18 00:49:11;;;;;;;;;7.25;6.25;;;;;20.21;38.65;100908.22;5077354;27;50982;-45
2022/02/18 00:51:37;;;;;;;;;5.50;5.50;;;;;20.21;38.48;100906.31;5077532;27;51178;-47
2022/02/18 00:54:03;;;;;;;;;6.00;3.75;;;;;20.21;38.89;100897.22;5077287;27;51104;-45
2022/02/18 00:56:28;;;;;;;;;4.25;4.00;;;;;20.21;38.61;100887.06;5076464;28;51733;-43
2022/02/18 00:58:53;;;;;;;;;4.25;3.50;;;;;20.21;38.62;100883.47;5075492;27;51153;-44
2022/02/18 01:01:19;;;;;;;;;5.00;2.50;;;;;20.20;38.54;100877.13;5077169;27;51206;-45
2022/02/18 01:03:44;;;;;;;;;4.75;4.50;;;;;20.20;38.80;100877.13;5077279;27;51145;-44
2022/02/18 01:06:10;;;;;;;;;7.00;4.75;;;;;20.20;39.02;100882.63;5092796;27;53552;-45
2022/02/18 01:08:36;;;;;;;;;5.00;4.00;;;;;20.19;38.85;100869.94;5077135;27;51058;-43
2022/02/18 01:11:01;;;;;;;;;8.25;4.50;;;;;20.19;38.99;100873.53;5077432;27;51029;-45
2022/02/18 01:13:28;;;;;;;;;4.00;3.00;;;;;20.19;39.08;100872.69;5076518;28;51116;-43
2022/02/18 01:15:53;;;;;;;;;6.25;4.75;;;;;20.18;38.81;100858.09;5076396;27;52301;-47
2022/02/18 01:18:21;;;;;;;;;5.25;4.00;;;;;20.19;39.09;100854.28;5077043;27;51131;-45
2022/02/18 01:20:47;;;;;;;;;6.75;3.00;;;;;20.18;39.02;100849.00;5077115;27;51586;-45
2022/02/18 01:23:12;;;;;;;;;3.00;3.00;;;;;20.18;39.09;100836.09;5076953;27;51325;-43
2022/02/18 01:25:38;;;;;;;;;7.75;5.00;;;;;20.18;38.70;100814.09;5076472;27;51035;-44
2022/02/18 01:28:04;;;;;;;;;8.00;4.00;;;;;20.20;39.15;100816.59;5077024;27;51044;-43
2022/02/18 01:30:30;;;;;;;;;4.00;4.00;;;;;20.18;38.95;100819.59;5076382;27;51031;-43
2022/02/18 01:32:55;;;;;;;;;5.00;3.00;;;;;20.17;38.79;100812.41;5076864;27;51143;-45
2022/02/18 01:35:21;;;;;;;;;2.75;2.75;;;;;20.19;39.00;100799.25;5076660;27;52433;-44
2022/02/18 01:37:49;;;;;;;;;5.00;4.00;;;;;20.18;39.31;100794.81;5076905;27;51147;-45
2022/02/18 01:40:15;;;;;;;;;3.25;3.00;;;;;20.18;38.94;100792.06;5076830;27;51318;-44
2022/02/18 01:42:42;;;;;;;;;3.50;2.50;;;;;20.18;39.17;100791.25;5077114;27;51066;-44
2022/02/18 01:45:09;;;;;;;;;5.50;3.00;;;;;20.18;39.13;100769.22;5076068;27;51203;-45
2022/02/18 01:47:34;;;;;;;;;3.75;3.75;;;;;20.16;39.17;100766.72;5076401;27;51178;-46
2022/02/18 01:49:59;;;;;;;;;4.50;3.50;;;;;20.16;39.00;100766.72;5076629;27;51135;-46
2022/02/18 01:52:31;;;;;;;;;3.25;3.25;;;;;20.17;39.02;100757.41;5076659;27;51131;-49
2022/02/18 01:54:57;;;;;;;;;7.00;3.00;;;;;20.17;39.23;100751.88;5075483;27;51861;-45
2022/02/18 01:57:24;;;;;;;;;3.50;2.25;;;;;20.18;39.30;100749.97;5076377;28;51507;-45
2022/02/18 01:59:49;;;;;;;;;3.00;3.00;;;;;20.16;39.47;100733.72;5075375;27;51017;-48
2022/02/18 02:02:14;;;;;;;;;4.00;3.50;;;;;20.16;39.31;100739.22;5076173;27;51276;-44
2022/02/18 02:04:44;;;;;;;;;2.00;2.00;;;;;20.15;39.39;100732.03;5076398;27;51371;-46
2022/02/18 02:07:09;;;;;;;;;4.75;4.00;;;;;20.16;39.04;100719.97;5076290;27;51170;-44
2022/02/18 02:09:35;;;;;;;;;6.00;4.50;;;;;20.15;39.19;100715.53;5075452;27;51061;-45
2022/02/18 02:12:01;;;;;;;;;4.75;2.00;;;;;20.15;39.16;100706.44;5076548;28;51204;-48
2022/02/18 02:14:27;;;;;;;;;3.00;2.50;;;;;20.16;39.49;100714.47;5075491;28;53333;-45
2022/02/18 02:16:52;;;;;;;;;4.50;3.50;;;;;20.15;39.36;100696.28;5076380;27;51041;-46
2022/02/18 02:19:17;;;;;;;;;2.25;2.00;;;;;20.15;39.39;100698.19;5076245;27;51186;-48
2022/02/18 02:21:49;;;;;;;;;2.25;1.75;;;;;20.14;39.52;100694.59;5076159;27;51186;-45
2022/02/18 02:24:14;;;;;;;;;6.75;4.75;;;;;20.15;39.39;100681.69;5076148;27;52096;-47
2022/02/18 02:26:40;;;;;;;;;2.00;2.00;;;;;20.15;39.52;100676.19;5076343;27;51115;-45
2022/02/18 02:29:05;;;;;;;;;4.00;2.25;;;;;20.15;39.83;100665.19;5074781;27;51143;-45
2022/02/18 02:31:31;;;;;;;;;4.00;3.75;;;;;20.14;39.55;100674.50;5076539;27;51464;-49
2022/02/18 02:33:56;;;;;;;;;2.25;2.25;;;;;20.13;39.67;100673.66;5075654;28;51871;-45
2022/02/18 02:36:22;;;;;;;;;4.00;2.50;;;;;20.14;39.39;100664.34;5076195;27;51013;-48
2022/02/18 02:38:48;;;;;;;;;5.25;2.25;;;;;20.13;39.43;100654.41;5075469;27;51151;-47
2022/02/18 02:41:13;;;;;;;;;4.50;3.75;;;;;20.15;39.84;100652.28;5075745;27;51237;-47
2022/02/18 02:43:39;;;;;;;;;3.00;3.00;;;;;20.13;39.60;100648.91;5075620;27;51056;-47
2022/02/18 02:46:04;;;;;;;;;3.50;2.00;;;;;20.15;39.98;100643.19;5075201;27;51225;-47
2022/02/18 02:48:29;;;;;;;;;5.00;2.75;;;;;20.14;39.91;100630.50;5075751;27;51060;-45
2022/02/18 02:50:55;;;;;;;;;3.00;1.50;;;;;20.13;39.61;100629.66;5074718;27;51063;-45
2022/02/18 02:53:20;;;;;;;;;2.00;1.00;;;;;20.14;39.84;100614.84;5075838;27;51987;-45
2022/02/18 02:55:45;;;;;;;;;2.00;1.25;;;;;20.13;39.66;100607.66;5075906;27;51119;-45
2022/02/18 02:58:11;;;;;;;;;2.75;1.75;;;;;20.13;39.98;100601.31;5075483;27;51033;-45
2022/02/18 03:00:36;;;;;;;;;2.00;2.00;;;;;20.13;40.08;100596.66;5075128;27;51278;-48
2022/02/18 03:03:01;;;;;;;;;3.00;2.25;;;;;20.13;40.11;100582.06;5090902;27;51145;-44
2022/02/18 03:05:27;;;;;;;;;2.00;2.00;;;;;20.13;39.95;100569.16;5075546;27;51109;-48
2022/02/18 03:07:52;;;;;;;;;1.75;1.25;;;;;20.12;40.03;100567.47;5075605;27;51149;-46
2022/02/18 03:10:17;;;;;;;;;2.00;2.00;;;;;20.13;39.84;100569.16;5075050;27;51096;-44
2022/02/18 03:12:43;;;;;;;;;2.00;2.00;;;;;20.13;39.83;100569.16;5075360;27;50970;-44
2022/02/18 03:15:08;;;;;;;;;2.75;0.50;;;;;20.13;40.25;100557.31;5074932;27;51069;-47
2022/02/18 03:17:34;;;;;;;;;2.00;2.00;;;;;20.12;39.78;100547.41;5075460;27;50957;-46
2022/02/18 03:19:59;;;;;;;;;2.00;2.00;;;;;20.12;39.98;100552.91;5075098;28;51204;-47
2022/02/18 03:22:25;;;;;;;;;2.00;1.25;;;;;20.12;39.82;100555.66;5075086;27;51726;-45
2022/02/18 03:24:50;;;;;;;;;3.25;1.50;;;;;20.13;40.07;100543.56;5075459;27;51065;-45
2022/02/18 03:27:15;;;;;;;;;1.25;1.25;;;;;20.12;40.16;100550.16;5074803;27;50986;-45
2022/02/18 03:29:41;;;;;;;;;2.75;1.50;;;;;20.12;40.00;100545.47;5074717;27;52211;-48
2022/02/18 03:32:07;;;;;;;;;2.00;1.75;;;;;20.11;39.92;100545.69;5075040;27;51136;-46
2022/02/18 03:34:34;;;;;;;;;3.25;2.00;;;;;20.12;40.18;100544.63;5074975;27;51108;-46
2022/02/18 03:37:00;;;;;;;;;1.00;1.00;;;;;20.12;40.24;100545.47;5074978;27;51235;-46
2022/02/18 03:39:25;;;;;;;;;1.00;1.00;;;;;20.12;40.43;100534.47;5075092;27;51115;-45
2022/02/18 03:41:51;;;;;;;;;1.00;1.00;;;;;20.13;40.11;100540.81;5075068;27;51491;-46
2022/02/18 03:44:17;;;;;;;;;1.00;1.00;;;;;20.12;40.01;100536.38;5074363;28;51032;-46
2022/02/18 03:46:42;;;;;;;;;1.50;1.00;;;;;20.10;40.27;100528.34;5075442;27;51037;-47
2022/02/18 03:49:08;;;;;;;;;2.25;1.00;;;;;20.11;40.37;100546.56;5074543;27;51473;-46
2022/02/18 03:51:33;;;;;;;;;0.75;0.75;;;;;20.11;40.12;100532.81;5074628;27;51937;-47
2022/02/18 03:53:58;;;;;;;;;0.75;0.75;;;;;20.11;39.98;100527.31;5074530;27;50989;-44
2022/02/18 03:56:24;;;;;;;;;1.00;1.00;;;;;20.11;40.13;100519.06;5075047;27;51019;-48
2022/02/18 03:58:50;;;;;;;;;0.75;0.75;;;;;20.11;40.22;100509.94;5074617;27;51089;-44
2022/02/18 04:01:15;;;;;;;;;2.75;2.75;;;;;20.11;40.23;100518.19;5074676;27;51040;-45
2022/02/18 04:03:42;;;;;;;;;0.00;0.00;;;;;20.12;39.96;100525.41;5074812;27;51027;-44
2022/02/18 04:06:07;;;;;;;;;1.00;0.25;;;;;20.10;40.41;100509.09;5074405;27;51156;-44
2022/02/18 04:08:32;;;;;;;;;0.75;0.75;;;;;20.10;40.40;100497.25;5074715;27;51025;-45
2022/02/18 04:10:58;;;;;;;;;0.75;0.75;;;;;20.10;40.49;100495.34;5074393;27;51190;-45
2022/02/18 04:13:23;;;;;;;;;0.50;0.50;;;;;20.11;40.23;100490.69;5074604;27;51178;-44
2022/02/18 04:15:49;;;;;;;;;0.00;0.00;;;;;20.10;40.17;100492.59;5074617;27;51036;-44
2022/02/18 04:18:15;;;;;;;;;0.00;0.00;;;;;20.10;40.41;100487.09;5074652;27;51077;-44
2022/02/18 04:20:40;;;;;;;;;0.75;0.00;;;;;20.10;40.18;100481.59;5074087;27;51122;-44
2022/02/18 04:23:06;;;;;;;;;0.25;0.25;;;;;20.10;40.31;100484.34;5075152;27;51101;-44
2022/02/18 04:25:31;;;;;;;;;0.75;0.75;;;;;20.11;40.24;100479.69;5078061;27;51208;-44
2022/02/18 04:27:59;;;;;;;;;0.25;0.25;;;;;20.10;40.48;100473.34;5078042;27;50926;-47
2022/02/18 04:30:25;;;;;;;;;1.00;0.00;;;;;20.10;40.13;100462.34;5076934;27;51067;-43
2022/02/18 04:32:50;;;;;;;;;0.25;0.25;;;;;20.09;40.48;100460.66;5076384;28;51107;-45
2022/02/18 04:35:17;;;;;;;;;0.25;0.25;;;;;20.09;40.24;100451.59;5077843;27;50956;-44
2022/02/18 04:37:43;;;;;;;;;0.00;0.00;;;;;20.09;40.24;100455.16;5078077;27;51389;-44
2022/02/18 04:40:10;;;;;;;;;0.00;0.00;;;;;20.09;40.14;100452.41;5077058;27;51237;-46
2022/02/18 04:42:35;;;;;;;;;0.00;0.00;;;;;20.08;40.28;100450.75;5077727;27;51082;-45
2022/02/18 04:45:01;;;;;;;;;0.00;0.00;;;;;20.09;40.17;100444.16;5077743;27;51176;-45
2022/02/18 04:47:26;;;;;;;;;0.00;0.00;;;;;20.10;40.25;100442.25;5078230;27;51089;-43
2022/02/18 04:49:52;;;;;;;;;0.00;0.00;;;;;20.10;40.38;100436.75;5076679;28;51657;-45
2022/02/18 04:52:17;;;;;;;;;0.00;0.00;;;;;20.09;40.34;100427.69;5077554;27;51106;-44
2022/02/18 04:54:43;;;;;;;;;0.25;0.25;;;;;20.10;40.18;100434.00;5077547;27;51080;-44
2022/02/18 04:57:08;;;;;;;;;0.50;0.00;;;;;20.09;40.41;100429.59;5077174;27;51082;-43
2022/02/18 04:59:34;;;;;;;;;0.00;0.00;;;;;20.08;40.56;100431.50;5077116;27;51702;-43
2022/02/18 05:02:00;;;;;;;;;0.00;0.00;;;;;20.08;40.41;100428.75;5076964;27;51231;-45
2022/02/18 05:04:25;;;;;;;;;0.00;0.00;;;;;20.09;40.39;100424.94;5077844;27;51176;-46
2022/02/18 05:06:51;;;;;;;;;0.00;0.00;;;;;20.09;40.30;100424.09;5077283;27;51296;-44
2022/02/18 05:09:16;;;;;;;;;0.00;0.00;;;;;20.08;40.59;100411.41;5076538;28;52428;-45
2022/02/18 05:11:42;;;;;;;;;0.00;0.00;;;;;20.09;40.41;100413.09;5077546;27;51120;-44
2022/02/18 05:14:07;;;;;;;;;0.00;0.00;;;;;20.09;40.51;100408.44;5076719;28;51155;-43
2022/02/18 05:16:33;;;;;;;;;0.00;0.00;;;;;20.08;40.62;100394.91;5077547;27;51093;-43
2022/02/18 05:18:58;;;;;;;;;0.00;0.00;;;;;20.08;40.49;100395.75;5076150;28;52050;-45
2022/02/18 05:21:24;;;;;;;;;1.00;1.00;;;;;20.07;40.39;100377.56;5077122;27;51044;-44
2022/02/18 05:23:50;;;;;;;;;1.00;0.00;;;;;20.08;40.35;100383.91;5077117;27;51223;-43
2022/02/18 05:26:15;;;;;;;;;0.00;0.00;;;;;20.08;40.16;100381.16;5077403;28;51103;-44
2022/02/18 05:28:41;;;;;;;;;0.75;0.00;;;;;20.07;40.58;100365.75;5076200;28;51323;-45
2022/02/18 05:31:06;;;;;;;;;0.00;0.00;;;;;20.07;40.47;100372.06;5076081;27;51273;-45
2022/02/18 05:33:31;;;;;;;;;0.00;0.00;;;;;20.06;40.25;100370.41;5077182;27;51370;-46
2022/02/18 05:35:57;;;;;;;;;0.00;0.00;;;;;20.07;40.54;100366.56;5075977;27;50989;-45
2022/02/18 05:38:22;;;;;;;;;0.75;0.00;;;;;20.07;40.35;100363.84;5076471;27;51117;-44
2022/02/18 05:40:47;;;;;;;;;0.50;0.00;;;;;20.06;40.58;100351.16;5077054;27;51189;-47
2022/02/18 05:43:13;;;;;;;;;1.00;0.00;;;;;20.07;40.81;100344.59;5076612;27;51191;-47
2022/02/18 05:45:38;;;;;;;;;2.00;0.00;;;;;20.07;40.40;100347.34;5077026;27;51087;-45
2022/02/18 05:48:04;;;;;;;;;0.00;0.00;;;;;20.08;40.52;100331.66;5076409;27;51800;-45
2022/02/18 05:50:29;;;;;;;;;0.00;0.00;;;;;20.06;40.60;100331.06;5076127;27;51178;-43
2022/02/18 05:52:54;;;;;;;;;0.00;0.00;;;;;20.07;40.46;100321.75;5076475;27;51722;-45
2022/02/18 05:55:20;;;;;;;;;0.00;0.00;;;;;20.06;40.71;100301.66;5076399;27;51301;-48
2022/02/18 05:57:45;;;;;;;;;0.00;0.00;;;;;20.07;40.55;100311.59;5076245;27;51943;-48
2022/02/18 06:00:11;;;;;;;;;0.00;0.00;;;;;20.06;40.86;100315.41;5076150;27;51108;-46
2022/02/18 06:02:36;;;;;;;;;0.25;0.00;;;;;20.06;40.82;100309.91;5075739;27;51269;-46
2022/02/18 06:05:02;;;;;;;;;0.25;0.00;;;;;20.04;41.21;100303.81;5076943;27;51005;-46
2022/02/18 06:07:29;;;;;;;;;0.00;0.00;;;;;20.01;41.62;100304.28;5075328;27;51739;-47
2022/02/18 06:09:54;;;;;;;;;0.00;0.00;;;;;19.96;41.88;100301.38;5076589;27;51154;-46
2022/02/18 06:12:20;;;;;;;;;0.00;0.00;;;;;19.91;42.16;100290.25;5076532;27;51201;-46
2022/02/18 06:14:49;;;;;;;;;0.00;0.00;;;;;19.85;42.76;100277.41;5075547;27;51353;-45
2022/02/18 06:17:18;;;;;;;;;0.25;0.25;;;;;19.79;42.84;100276.44;5068040;28;52915;-44
2022/02/18 06:19:43;;;;;;;;;1.00;0.00;;;;;19.76;42.53;100267.81;5076187;27;51176;-45
2022/02/18 06:22:09;;;;;;;;;0.00;0.00;;;;;19.71;43.03;100265.78;5075232;27;51302;-45
2022/02/18 06:24:34;;;;;;;;;2.00;1.00;;;;;19.67;43.09;100250.81;5076059;27;51055;-44
2022/02/18 06:26:59;;;;;;;;;0.50;0.00;;;;;19.70;43.15;100249.53;5075477;27;51045;-46
2022/02/18 06:29:25;;;;;;;;;0.00;0.00;;;;;19.75;43.26;100242.25;5075469;27;51221;-43
2022/02/18 06:31:50;;;;;;;;;0.00;0.00;;;;;19.84;43.44;100243.59;5075159;27;51436;-42
2022/02/18 06:34:15;;;;;;;;;2.75;0.00;;;;;19.95;43.21;100247.47;5076004;27;51123;-43
2022/02/18 06:36:41;;;;;;;;;0.00;0.00;;;;;20.06;42.90;100241.19;5075814;27;51139;-44
2022/02/18 06:39:07;;;;;;;;;0.75;0.75;;;;;20.15;42.73;100242.53;5075793;27;52673;-45
2022/02/18 06:41:32;;;;;;;;;1.00;0.00;;;;;20.26;42.79;100234.53;5075642;27;51163;-46
2022/02/18 06:43:58;;;;;;;;;0.00;0.00;;;;;20.34;42.71;100234.22;5075815;27;51100;-45
2022/02/18 06:46:23;;;;;;;;;0.00;0.00;;;;;20.42;42.33;100228.34;5075248;27;52125;-44
2022/02/18 06:48:49;;;;;;;;;0.00;0.00;;;;;20.51;42.22;100235.22;5075370;27;50985;-44
2022/02/18 06:51:14;;;;;;;;;0.00;0.00;;;;;20.59;42.47;100231.28;5074286;27;51125;-44
2022/02/18 06:53:40;;;;;;;;;0.00;0.00;;;;;20.62;41.90;100226.13;5076070;27;51010;-43
2022/02/18 06:56:06;;;;;;;;;0.00;0.00;;;;;20.65;41.54;100216.59;5075048;27;51298;-44
2022/02/18 06:58:31;;;;;;;;;0.00;0.00;;;;;20.66;41.94;100216.34;5075412;27;51441;-44
2022/02/18 07:00:57;;;;;;;;;0.00;0.00;;;;;20.64;41.86;100210.25;5075539;27;51295;-47
2022/02/18 07:03:22;;;;;;;;;1.00;1.00;;;;;20.69;41.60;100204.00;5075235;27;51012;-43
2022/02/18 07:05:49;;;;;;;;;1.00;0.50;;;;;20.68;41.92;100197.66;5074702;27;51223;-44
2022/02/18 07:08:15;;;;;;;;;0.00;0.00;;;;;20.70;42.02;100194.66;5074725;27;51095;-44
2022/02/18 07:10:41;;;;;;;;;0.75;0.75;;;;;20.72;42.14;100196.09;5075191;27;51172;-46
2022/02/18 07:13:07;;;;;;;;;0.00;0.00;;;;;20.73;41.72;100194.19;5075540;27;51012;-44
2022/02/18 07:15:33;;;;;;;;;1.00;0.00;;;;;20.77;41.97;100200.06;5074575;27;51049;-46
2022/02/18 07:18:01;;;;;;;;;0.00;0.00;;;;;20.78;41.95;100208.06;5075171;27;51308;-46
2022/02/18 07:20:26;;;;;;;;;0.50;0.50;;;;;20.79;42.02;100203.41;5075462;27;51340;-44
2022/02/18 07:22:52;;;;;;;;;1.00;1.00;;;;;20.79;41.67;100201.50;5074998;27;51098;-45
2022/02/18 07:25:19;;;;;;;;;1.00;1.00;;;;;20.82;41.94;100192.75;5074634;27;51706;-45
2022/02/18 07:27:44;;;;;;;;;0.00;0.00;;;;;20.83;42.04;100193.59;5074780;27;51265;-46
2022/02/18 07:30:14;;;;;;;;;0.50;0.50;;;;;20.84;41.92;100189.75;5074657;27;51135;-45
2022/02/18 07:32:39;;;;;;;;;1.25;1.00;;;;;20.84;41.95;100178.75;5074422;28;51402;-45
2022/02/18 07:35:05;;;;;;;;;1.00;1.00;;;;;20.83;41.54;100188.06;5073614;27;51036;-45
2022/02/18 07:37:31;;;;;;;;;4.00;1.00;;;;;20.80;41.74;100181.16;5075351;27;51123;-43
2022/02/18 07:39:56;;;;;;;;;3.25;1.50;;;;;20.79;41.67;100170.38;5075572;27;51140;-43
2022/02/18 07:42:21;;;;;;;;;3.00;0.75;;;;;20.74;41.51;100158.19;5075780;27;51171;-44
2022/02/18 07:44:47;;;;;;;;;2.00;2.00;;;;;20.73;41.76;100161.16;5075291;27;51938;-45
2022/02/18 07:47:12;;;;;;;;;4.00;0.75;;;;;20.71;41.74;100182.59;5075458;27;50967;-44
2022/02/18 07:49:40;;;;;;;;;2.25;2.00;;;;;20.68;41.56;100169.31;5075569;28;50939;-45
2022/02/18 07:52:07;;;;;;;;;2.75;1.75;;;;;20.67;41.35;100181.41;5075234;27;51089;-45
2022/02/18 07:54:33;;;;;;;;;2.50;2.00;;;;;20.64;41.39;100182.72;5075256;27;52656;-45
2022/02/18 07:56:58;;;;;;;;;0.75;0.00;;;;;20.61;41.58;100171.34;5075284;27;51172;-44
2022/02/18 07:59:23;;;;;;;;;1.00;1.00;;;;;20.59;41.48;100177.09;5077716;27;50943;-44
2022/02/18 08:01:49;;;;;;;;;1.00;1.00;;;;;20.58;41.34;100169.06;5078844;27;51004;-46
2022/02/18 08:04:14;;;;;;;;;2.25;0.50;;;;;20.54;41.68;100151.38;5078605;27;51944;-46
2022/02/18 08:06:39;;;;;;;;;2.00;1.00;;;;;20.52;41.82;100146.09;5078400;27;51113;-45
2022/02/18 08:09:05;;;;;;;;;2.50;0.50;;;;;20.50;41.62;100148.25;5094232;27;51385;-44
2022/02/18 08:11:30;;;;;;;;;0.75;0.75;;;;;20.48;41.44;100144.91;5078577;27;51073;-48
2022/02/18 08:13:56;;;;;;;;;1.25;0.75;;;;;20.46;41.66;100133.31;5077299;27;52854;-44
2022/02/18 08:16:21;;;;;;;;;1.25;1.25;;;;;20.44;41.55;100122.53;5075090;27;51759;-44
2022/02/18 08:18:47;;;;;;;;;0.00;0.00;;;;;20.43;41.79;100109.03;5076650;27;50980;-45
2022/02/18 08:21:13;;;;;;;;;1.50;1.00;;;;;20.42;41.49;100119.16;5075241;27;51186;-44
2022/02/18 08:23:40;;;;;;;;;0.75;0.75;;;;;20.42;41.57;100113.66;5069115;28;51891;-44
2022/02/18 08:26:05;;;;;;;;;1.00;1.00;;;;;20.42;41.59;100099.91;5074895;28;51548;-44
2022/02/18 08:28:31;;;;;;;;;2.00;0.00;;;;;20.42;41.00;100126.56;5075848;27;51043;-44
2022/02/18 08:30:56;;;;;;;;;1.00;1.00;;;;;20.41;41.23;100113.88;5075812;27;51258;-45
2022/02/18 08:33:22;;;;;;;;;0.75;0.00;;;;;20.39;41.34;100116.03;5076318;27;51068;-44
2022/02/18 08:35:48;;;;;;;;;0.50;0.50;;;;;20.39;41.28;100105.88;5076708;27;51178;-46
2022/02/18 08:38:13;;;;;;;;;1.00;0.00;;;;;20.39;41.54;100116.03;5076917;27;51103;-44
2022/02/18 08:40:38;;;;;;;;;1.75;0.75;;;;;20.37;41.58;100102.53;5074979;27;51283;-44
2022/02/18 08:43:04;;;;;;;;;1.00;1.00;;;;;20.37;41.09;100094.28;5075659;27;51762;-45
2022/02/18 08:45:30;;;;;;;;;0.50;0.50;;;;;20.36;41.24;100106.34;5076482;27;51048;-44
2022/02/18 08:47:56;;;;;;;;;0.00;0.00;;;;;20.36;41.39;100113.78;5074176;28;51142;-46
2022/02/18 08:50:21;;;;;;;;;0.50;0.50;;;;;20.36;41.18;100127.53;5076573;27;51153;-46
2022/02/18 08:52:47;;;;;;;;;1.50;1.00;;;;;20.35;41.66;100114.84;5076036;27;51163;-47
2022/02/18 08:55:14;;;;;;;;;2.00;0.00;;;;;20.35;41.37;100106.59;5091792;27;51114;-45
2022/02/18 08:57:41;;;;;;;;;0.00;0.00;;;;;20.34;41.43;100114.03;5076361;27;51190;-45
2022/02/18 09:00:07;;;;;;;;;2.00;2.00;;;;;20.33;41.28;100123.34;5076150;27;51083;-44
2022/02/18 09:02:37;;;;;;;;;0.50;0.50;;;;;20.32;40.89;100118.06;5075799;27;51075;-44
2022/02/18 09:05:03;;;;;;;;;2.00;2.00;;;;;20.33;41.02;100111.50;5075780;27;51324;-45
2022/02/18 09:07:29;;;;;;;;;1.50;1.50;;;;;20.32;41.41;100115.31;5075631;27;51302;-45
2022/02/18 09:09:56;;;;;;;;;2.75;1.00;;;;;20.30;41.51;100111.97;5076062;28;51151;-44
2022/02/18 09:12:22;;;;;;;;;1.00;1.00;;;;;20.31;41.34;100102.63;5076006;27;51874;-48
2022/02/18 09:14:47;;;;;;;;;2.00;1.00;;;;;20.30;41.46;100101.81;5076142;27;51180;-44
2022/02/18 09:17:13;;;;;;;;;0.00;0.00;;;;;20.28;41.29;100109.47;5075167;27;51491;-45
2022/02/18 09:19:38;;;;;;;;;1.00;0.75;;;;;20.29;40.98;100102.03;5075585;28;51182;-45
2022/02/18 09:22:03;;;;;;;;;1.25;1.25;;;;;20.27;41.15;100087.69;5074956;27;51867;-45
2022/02/18 09:24:29;;;;;;;;;1.25;1.00;;;;;20.27;41.11;100071.19;5076292;27;51021;-45
2022/02/18 09:26:54;;;;;;;;;2.25;1.00;;;;;20.28;41.01;100081.13;5074659;27;51425;-45
2022/02/18 09:29:20;;;;;;;;;0.75;0.75;;;;;20.26;41.16;100069.53;5075216;27;51339;-45
2022/02/18 09:31:46;;;;;;;;;0.50;0.25;;;;;20.25;41.13;100057.69;5074616;27;51595;-46
2022/02/18 09:34:12;;;;;;;;;2.00;1.00;;;;;20.25;40.96;100071.44;5075910;27;50925;-44
2022/02/18 09:36:37;;;;;;;;;4.00;1.00;;;;;20.24;41.03;100077.19;5075593;27;51147;-46
2022/02/18 09:39:05;;;;;;;;;1.00;1.00;;;;;20.24;41.09;100058.78;5075515;27;51248;-46
2022/02/18 09:41:31;;;;;;;;;1.00;1.00;;;;;20.23;41.01;100065.34;5074023;27;51109;-43
2022/02/18 09:44:00;;;;;;;;;1.25;0.50;;;;;20.23;41.11;100065.34;5075970;28;51075;-47
2022/02/18 09:46:27;;;;;;;;;1.50;0.75;;;;;20.23;41.24;100061.75;5075338;27;51163;-44
2022/02/18 09:48:54;;;;;;;;;1.25;0.00;;;;;20.23;41.35;100056.25;5075683;27;51113;-45
2022/02/18 09:51:20;;;;;;;;;0.25;0.25;;;;;20.22;41.35;100043.56;5074747;27;51166;-45
2022/02/18 09:53:46;;;;;;;;;1.00;1.00;;;;;20.21;41.44;100048.22;5075083;27;51116;-45
2022/02/18 09:56:15;;;;;;;;;1.00;0.00;;;;;20.22;41.22;100049.06;5075511;28;51561;-44
2022/02/18 09:58:40;;;;;;;;;0.75;0.50;;;;;20.22;41.10;100040.81;5073845;27;51281;-44
2022/02/18 10:01:06;;;;;;;;;3.00;1.50;;;;;20.22;41.43;100046.31;5071160;27;52372;-44
2022/02/18 10:03:32;;;;;;;;;1.25;1.00;;;;;20.21;41.20;100036.38;5072065;27;51104;-46
2022/02/18 10:05:57;;;;;;;;;1.75;0.00;;;;;20.21;41.37;100025.41;5072887;27;51234;-46
2022/02/18 10:08:25;;;;;;;;;1.00;1.00;;;;;20.20;41.27;100021.81;5072626;28;51383;-48
2022/02/18 10:11:02;;;;;;;;;0.00;0.00;;;;;20.19;41.39;100018.22;5062442;28;51712;-44
2022/02/18 10:13:39;;;;;;;;;0.75;0.50;;;;;20.21;41.41;100008.91;5072849;27;51469;-43
2022/02/18 10:16:14;;;;;;;;;1.00;0.00;;;;;20.20;41.04;100005.31;5072326;27;51290;-44
2022/02/18 10:18:57;;;;;;;;;0.00;0.00;;;;;20.18;41.48;100001.97;5069172;28;51201;-45
2022/02/18 10:21:30;;;;;;;;;0.75;0.75;;;;;20.19;41.43;100018.22;5071501;27;52796;-46
2022/02/18 10:24:08;;;;;;;;;0.50;0.00;;;;;20.19;41.50;99996.22;5072009;28;51417;-49
2022/02/18 10:26:38;;;;;;;;;0.00;0.00;;;;;20.19;41.44;99998.13;5072368;27;51508;-44
2022/02/18 10:29:08;;;;;;;;;1.00;1.00;;;;;20.18;41.27;99993.72;5072564;27;51940;-47
2022/02/18 10:31:35;;;;;;;;;0.00;0.00;;;;;20.17;41.16;99987.38;5072619;27;51742;-47
2022/02/18 10:34:06;;;;;;;;;2.00;0.00;;;;;20.16;41.54;99991.22;5070671;27;51787;-46
2022/02/18 10:36:40;;;;;;;;;0.00;0.00;;;;;20.17;41.44;100001.13;5070772;28;51791;-45
2022/02/18 10:39:23;;;;;;;;;2.50;2.50;;;;;20.17;41.45;99987.38;5072632;28;51131;-47
2022/02/18 10:41:59;;;;;;;;;0.00;0.00;;;;;20.16;41.42;99991.22;5071402;28;51254;-45
2022/02/18 10:44:26;;;;;;;;;0.25;0.00;;;;;20.16;41.56;99996.72;5071460;28;51167;-45
2022/02/18 10:46:55;;;;;;;;;0.75;0.75;;;;;20.15;41.43;99994.22;5071790;28;51412;-44
2022/02/18 10:49:26;;;;;;;;;1.00;1.00;;;;;20.16;41.37;99987.63;5071566;27;51099;-44
2022/02/18 10:51:52;;;;;;;;;1.50;0.00;;;;;20.15;41.31;99981.28;5072559;28;51148;-44
2022/02/18 10:54:29;;;;;;;;;1.25;0.25;;;;;20.16;41.04;99985.72;5072007;27;51328;-46
2022/02/18 10:57:20;;;;;;;;;2.00;0.00;;;;;20.16;41.29;99979.38;5073201;27;51099;-46
2022/02/18 10:59:48;;;;;;;;;0.00;0.00;;;;;20.14;41.55;99976.03;5065510;28;51203;-46
2022/02/18 11:02:13;;;;;;;;;0.75;0.75;;;;;20.14;41.73;99965.88;5072108;27;51975;-44
2022/02/18 11:04:40;;;;;;;;;0.00;0.00;;;;;20.15;41.05;99972.22;5072592;27;51323;-44
2022/02/18 11:07:14;;;;;;;;;0.25;0.00;;;;;20.13;41.32;99961.47;5072592;27;51321;-44
2022/02/18 11:09:41;;;;;;;;;0.00;0.00;;;;;20.14;41.39;99971.38;5073042;27;51423;-44
2022/02/18 11:12:11;;;;;;;;;0.00;0.00;;;;;20.14;41.43;99973.28;5071326;27;51139;-44
2022/02/18 11:14:40;;;;;;;;;0.00;0.00;;;;;20.14;41.33;99976.03;5071773;27;51389;-48
2022/02/18 11:17:06;;;;;;;;;2.25;1.50;;;;;20.14;41.61;99965.03;5071710;27;51211;-46
2022/02/18 11:19:31;;;;;;;;;0.00;0.00;;;;;20.14;41.45;99976.03;5071881;27;51089;-44
2022/02/18 11:21:58;;;;;;;;;0.00;0.00;;;;;20.14;41.34;99970.53;5071522;27;51892;-43